Time;durP1;ratioP1;P1;durP2;ratioP2;P2;SDS_P1;SDS_P2;PMS_P1;PMS_P2;Temp;Humidity;BMP_temperature;BMP_pressure;BME280_temperature;BME280_humidity;BME280_pressure;Samples;Min_cycle;Max_cycle;Signal;HPM_P1;HPM_P2
2024/01/01 00:00:13;;;;;;;7.78;4.55;;;;;;;18.64;43.39;99754.16;5086049;28;20120;-73
2024/01/01 00:02:40;;;;;;;9.32;4.57;;;;;;;18.55;43.89;99720.78;5082880;28;20040;-70
2024/01/01 00:05:06;;;;;;;7.03;3.80;;;;;;;18.64;43.42;99759.44;5087685;28;20525;-72
2024/01/01 00:07:32;;;;;;;7.05;3.80;;;;;;;18.61;43.24;99763.22;5088258;28;20043;-72
2024/01/01 00:09:57;;;;;;;8.63;4.03;;;;;;;18.54;43.00;99764.81;5088218;28;20024;-70
2024/01/01 00:12:22;;;;;;;7.30;3.80;;;;;;;18.51;42.83;99746.66;5088194;28;20031;-70
2024/01/01 00:14:47;;;;;;;5.80;3.35;;;;;;;18.49;42.95;99756.53;5087899;28;20786;-71
2024/01/01 00:17:13;;;;;;;7.05;3.40;;;;;;;18.59;42.65;99774.91;5087776;28;20032;-71
2024/01/01 00:19:39;;;;;;;7.55;3.47;;;;;;;18.58;42.50;99778.50;5087932;28;20476;-72
2024/01/01 00:22:04;;;;;;;6.65;3.38;;;;;;;18.56;42.70;99781.31;5087975;28;20020;-72
2024/01/01 00:24:30;;;;;;;6.88;3.45;;;;;;;18.46;42.48;99759.47;5088062;28;20036;-70
2024/01/01 00:26:55;;;;;;;5.80;3.30;;;;;;;18.45;42.62;99763.94;5086916;28;20464;-70
2024/01/01 00:29:20;;;;;;;6.97;3.65;;;;;;;18.53;42.53;99792.16;5087617;28;20357;-72
2024/01/01 00:31:46;;;;;;;6.83;3.07;;;;;;;18.55;42.70;99792.00;5087637;28;20032;-72
2024/01/01 00:34:11;;;;;;;6.82;3.03;;;;;;;18.47;42.29;99782.25;5087807;28;20279;-71
2024/01/01 00:36:36;;;;;;;4.60;2.42;;;;;;;18.45;42.11;99774.47;5087317;28;20028;-73
2024/01/01 00:39:02;;;;;;;5.53;2.95;;;;;;;18.47;42.29;99780.44;5086847;28;20447;-72
2024/01/01 00:41:27;;;;;;;5.45;3.03;;;;;;;18.49;42.20;99791.66;5087737;28;20099;-72
2024/01/01 00:43:53;;;;;;;5.68;2.80;;;;;;;18.41;42.46;99777.56;5087508;28;20051;-71
2024/01/01 00:46:18;;;;;;;6.72;3.00;;;;;;;18.50;42.36;99789.84;5087571;28;20031;-71
2024/01/01 00:48:43;;;;;;;5.13;2.60;;;;;;;18.40;42.23;99768.00;5087212;28;20590;-69
2024/01/01 00:51:09;;;;;;;5.07;2.65;;;;;;;18.45;41.95;99779.75;5087670;28;20066;-72
2024/01/01 00:53:34;;;;;;;5.05;2.47;;;;;;;18.41;42.04;99775.75;5087141;28;20028;-72
2024/01/01 00:55:59;;;;;;;6.28;2.97;;;;;;;18.48;42.16;99783.88;5087937;28;20405;-71
2024/01/01 00:58:24;;;;;;;5.38;2.33;;;;;;;18.47;42.12;99783.06;5087227;28;20036;-71
2024/01/01 01:00:50;;;;;;;5.97;2.70;;;;;;;18.44;41.83;99774.63;5086793;28;20038;-71
2024/01/01 01:03:15;;;;;;;5.35;2.70;;;;;;;18.41;41.96;99767.84;5085270;28;20040;-73
2024/01/01 01:05:40;;;;;;;4.60;2.28;;;;;;;18.41;41.88;99773.13;5086853;28;20043;-72
2024/01/01 01:08:06;;;;;;;6.97;2.70;;;;;;;18.32;42.23;99763.47;5087184;28;20145;-70
2024/01/01 01:10:32;;;;;;;5.03;2.60;;;;;;;18.33;42.25;99770.41;5087305;28;20032;-73
2024/01/01 01:12:57;;;;;;;5.10;2.35;;;;;;;18.34;42.03;99768.59;5086705;28;20212;-73
2024/01/01 01:15:26;;;;;;;4.32;2.20;;;;;;;18.38;42.27;99785.78;5086987;28;20465;-73
2024/01/01 01:17:51;;;;;;;4.15;2.13;;;;;;;18.36;41.96;99791.22;5086719;28;20051;-70
2024/01/01 01:20:18;;;;;;;4.38;2.10;;;;;;;18.38;42.08;99789.25;5086184;28;20063;-69
2024/01/01 01:22:43;;;;;;;4.72;2.35;;;;;;;18.28;41.77;99772.69;5086261;28;20035;-71
2024/01/01 01:25:09;;;;;;;4.25;1.92;;;;;;;18.37;41.90;99792.84;5086979;28;20028;-72
2024/01/01 01:27:34;;;;;;;4.22;2.00;;;;;;;18.38;42.15;99796.34;5086953;28;20424;-71
2024/01/01 01:30:00;;;;;;;5.72;2.42;;;;;;;18.27;42.27;99785.03;5087073;28;20107;-73
2024/01/01 01:32:25;;;;;;;4.22;1.88;;;;;;;18.35;42.16;99792.19;5086927;28;20074;-74
2024/01/01 01:34:51;;;;;;;4.65;2.22;;;;;;;18.26;41.98;99785.19;5087307;28;20073;-69
2024/01/01 01:37:17;;;;;;;5.75;2.20;;;;;;;18.24;41.74;99777.41;5087103;28;20107;-71
2024/01/01 01:39:42;;;;;;;5.35;2.55;;;;;;;18.24;42.00;99779.22;5086779;28;20060;-72
2024/01/01 01:42:08;;;;;;;5.75;2.10;;;;;;;18.26;41.84;99791.28;5087153;28;20075;-71
2024/01/01 01:44:33;;;;;;;9.13;2.80;;;;;;;18.30;42.17;99791.81;5085867;28;20518;-71
2024/01/01 01:47:00;;;;;;;4.65;1.95;;;;;;;18.24;42.26;99787.13;5086403;28;20048;-73
2024/01/01 01:49:25;;;;;;;5.22;1.90;;;;;;;18.25;42.15;99780.91;5086448;28;20040;-71
2024/01/01 01:51:52;;;;;;;5.18;1.83;;;;;;;18.27;42.32;99792.94;5086602;28;20081;-71
2024/01/01 01:54:17;;;;;;;4.78;2.03;;;;;;;18.27;42.07;99792.94;5086331;28;20032;-70
2024/01/01 01:56:43;;;;;;;3.53;1.65;;;;;;;18.18;42.15;99778.00;5086485;28;20487;-72
2024/01/01 01:59:09;;;;;;;6.10;1.98;;;;;;;18.19;42.24;99784.97;5086171;28;20040;-71
2024/01/01 02:01:34;;;;;;;4.20;1.70;;;;;;;18.17;42.12;99794.84;5086219;28;20031;-70
2024/01/01 02:03:59;;;;;;;5.72;2.08;;;;;;;18.06;42.37;99780.06;5084647;28;20044;-72
2024/01/01 02:06:25;;;;;;;4.75;1.90;;;;;;;18.25;42.08;99797.53;5086159;28;20073;-72
2024/01/01 02:08:51;;;;;;;5.97;1.95;;;;;;;18.21;42.14;99798.00;5086169;28;20118;-71
2024/01/01 02:11:16;;;;;;;5.05;2.03;;;;;;;18.23;41.82;99796.88;5086323;28;20020;-70
2024/01/01 02:13:41;;;;;;;4.90;1.90;;;;;;;18.22;42.33;99795.19;5085923;28;20457;-70
2024/01/01 02:16:07;;;;;;;4.03;1.63;;;;;;;18.20;42.09;99788.41;5086472;28;20350;-73
2024/01/01 02:18:32;;;;;;;4.40;1.70;;;;;;;18.19;42.12;99795.50;5085758;28;20042;-71
2024/01/01 02:20:57;;;;;;;5.47;1.77;;;;;;;18.09;42.28;99790.31;5085963;28;20043;-70
2024/01/01 02:23:24;;;;;;;4.88;1.70;;;;;;;18.16;42.03;99800.25;5085951;28;20747;-72
2024/01/01 02:25:50;;;;;;;5.55;1.77;;;;;;;18.08;42.31;99786.00;5085715;28;20039;-69
2024/01/01 02:28:15;;;;;;;4.40;1.60;;;;;;;18.06;42.15;99790.59;5085863;28;20449;-69
2024/01/01 02:30:41;;;;;;;5.93;2.10;;;;;;;18.09;42.45;99800.03;5085869;28;20115;-71
2024/01/01 02:33:10;;;;;;;4.90;1.55;;;;;;;18.18;42.20;99808.84;5085868;28;20035;-70
2024/01/01 02:35:36;;;;;;;5.43;1.90;;;;;;;18.02;42.26;99796.31;5085713;28;20032;-73
2024/01/01 02:38:04;;;;;;;4.28;1.65;;;;;;;18.15;42.38;99822.31;5085761;28;20478;-71
2024/01/01 02:40:32;;;;;;;4.40;1.90;;;;;;;18.04;42.21;99803.13;5085654;28;20036;-71
2024/01/01 02:43:00;;;;;;;4.03;1.50;;;;;;;18.13;42.54;99807.50;5086190;28;20032;-72
2024/01/01 02:45:25;;;;;;;5.63;1.80;;;;;;;18.09;42.60;99805.31;5086211;28;20503;-70
2024/01/01 02:47:50;;;;;;;4.82;1.52;;;;;;;18.07;42.62;99820.41;5086032;28;20036;-71
2024/01/01 02:50:18;;;;;;;4.13;1.30;;;;;;;18.09;42.54;99840.41;5086544;28;20075;-68
2024/01/01 02:52:43;;;;;;;5.15;1.73;;;;;;;18.01;42.60;99821.00;5086290;28;20024;-71
2024/01/01 02:55:09;;;;;;;4.13;1.50;;;;;;;18.10;42.52;99828.88;5086166;28;20032;-71
2024/01/01 02:57:34;;;;;;;4.07;1.30;;;;;;;18.08;42.43;99851.09;5086125;28;20038;-71
2024/01/01 03:00:00;;;;;;;4.68;1.60;;;;;;;18.02;42.28;99833.22;5089438;28;21097;-73
2024/01/01 03:02:25;;;;;;;4.32;1.77;;;;;;;18.09;42.36;99836.94;5088351;28;20437;-71
2024/01/01 03:04:50;;;;;;;4.15;1.60;;;;;;;18.04;42.48;99829.47;5089311;28;20431;-70
2024/01/01 03:07:15;;;;;;;4.47;1.60;;;;;;;18.02;42.12;99820.03;5089601;28;20522;-69
2024/01/01 03:09:41;;;;;;;4.57;1.50;;;;;;;17.97;42.45;99812.59;5089244;28;20036;-73
2024/01/01 03:12:06;;;;;;;4.47;1.50;;;;;;;17.94;42.49;99816.38;5089316;28;20260;-71
2024/01/01 03:14:32;;;;;;;4.82;1.67;;;;;;;17.97;42.10;99823.13;5089908;28;20039;-71
2024/01/01 03:16:57;;;;;;;4.28;1.30;;;;;;;18.06;42.29;99837.25;5090075;28;20070;-74
2024/01/01 03:19:22;;;;;;;6.13;1.80;;;;;;;17.99;42.59;99825.63;5089378;28;20066;-73
2024/01/01 03:21:47;;;;;;;5.32;1.48;;;;;;;17.92;42.50;99818.28;5090144;28;20043;-71
2024/01/01 03:24:13;;;;;;;5.38;1.90;;;;;;;17.95;42.56;99828.53;5089305;28;20115;-70
2024/01/01 03:26:38;;;;;;;5.50;1.77;;;;;;;18.00;42.71;99838.66;5089515;28;20472;-70
2024/01/01 03:29:03;;;;;;;5.07;1.70;;;;;;;18.04;42.43;99847.94;5089296;28;20695;-70
2024/01/01 03:31:29;;;;;;;4.88;1.52;;;;;;;18.01;42.70;99852.66;5089793;28;20032;-69
2024/01/01 03:33:54;;;;;;;4.75;1.73;;;;;;;17.92;42.19;99836.75;5089174;28;20631;-71
2024/01/01 03:36:19;;;;;;;4.75;1.63;;;;;;;18.00;42.40;99851.84;5089458;28;20467;-71
2024/01/01 03:38:45;;;;;;;4.10;1.50;;;;;;;18.02;42.41;99852.50;5089455;28;20081;-72
2024/01/01 03:41:10;;;;;;;7.05;1.77;;;;;;;17.90;42.34;99843.97;5089094;28;20491;-71
2024/01/01 03:43:35;;;;;;;4.85;1.67;;;;;;;17.90;42.56;99843.97;5071385;28;20377;-73
2024/01/01 03:46:00;;;;;;;5.45;1.67;;;;;;;18.00;42.41;99861.56;5089511;28;20839;-71
2024/01/01 03:48:26;;;;;;;4.85;1.50;;;;;;;17.92;42.25;99843.84;5088866;28;20028;-70
2024/01/01 03:50:51;;;;;;;5.30;1.60;;;;;;;18.00;42.02;99853.66;5089175;28;20050;-70
2024/01/01 03:53:16;;;;;;;4.95;1.30;;;;;;;17.91;42.11;99844.81;5089745;28;20416;-73
2024/01/01 03:55:41;;;;;;;5.63;1.60;;;;;;;17.97;42.32;99861.84;5089468;28;20040;-73
2024/01/01 03:58:07;;;;;;;4.82;1.38;;;;;;;17.90;42.50;99859.78;5089135;28;20118;-74
2024/01/01 04:00:32;;;;;;;5.72;1.67;;;;;;;17.93;42.57;99854.22;5089429;28;20035;-69
2024/01/01 04:02:57;;;;;;;5.18;1.60;;;;;;;17.94;42.26;99857.69;5088632;28;20036;-71
2024/01/01 04:05:23;;;;;;;4.75;1.38;;;;;;;17.92;42.51;99860.47;5088720;28;20047;-69
2024/01/01 04:07:48;;;;;;;4.45;1.23;;;;;;;17.95;42.50;99862.81;5089437;28;20040;-71
2024/01/01 04:10:13;;;;;;;4.22;1.52;;;;;;;17.86;42.52;99852.28;5087986;28;20111;-69
2024/01/01 04:12:39;;;;;;;4.30;1.25;;;;;;;17.92;42.36;99870.19;5089191;28;20032;-69
2024/01/01 04:15:04;;;;;;;5.18;1.50;;;;;;;17.85;42.20;99858.53;5088930;28;20106;-70
2024/01/01 04:17:31;;;;;;;4.20;1.30;;;;;;;17.92;42.16;99870.19;5089182;28;20039;-68
2024/01/01 04:19:56;;;;;;;5.13;1.33;;;;;;;17.89;42.42;99862.56;5088638;28;20388;-73
2024/01/01 04:22:22;;;;;;;4.18;1.63;;;;;;;17.82;42.42;99864.94;5088711;28;20111;-71
2024/01/01 04:24:47;;;;;;;4.30;1.30;;;;;;;17.89;42.15;99867.84;5088352;28;20465;-70
2024/01/01 04:27:12;;;;;;;4.50;1.40;;;;;;;17.90;42.24;99870.34;5089388;28;20042;-72
2024/01/01 04:29:38;;;;;;;4.45;1.20;;;;;;;17.82;42.17;99862.31;5089499;28;20032;-71
2024/01/01 04:32:03;;;;;;;5.00;1.50;;;;;;;17.88;42.41;99867.03;5089152;28;20035;-72
2024/01/01 04:34:28;;;;;;;5.50;1.52;;;;;;;17.79;42.02;99852.06;5088862;28;20032;-71
2024/01/01 04:36:54;;;;;;;5.00;1.30;;;;;;;17.89;42.48;99886.31;5089051;28;20418;-70
2024/01/01 04:39:19;;;;;;;4.00;1.20;;;;;;;17.81;42.23;99855.38;5088433;28;20422;-69
2024/01/01 04:41:45;;;;;;;4.80;1.38;;;;;;;17.86;42.00;99871.56;5088628;28;20039;-69
2024/01/01 04:44:10;;;;;;;3.88;1.20;;;;;;;17.87;42.38;99875.06;5088721;28;20023;-70
2024/01/01 04:46:35;;;;;;;4.18;1.20;;;;;;;17.82;41.92;99872.03;5088654;28;20036;-70
2024/01/01 04:49:00;;;;;;;3.83;1.30;;;;;;;17.86;42.28;99886.56;5088610;28;20093;-69
2024/01/01 04:51:26;;;;;;;4.00;1.08;;;;;;;17.80;42.21;99858.16;5088505;28;20514;-70
2024/01/01 04:53:51;;;;;;;5.45;1.30;;;;;;;17.85;42.17;99879.63;5088581;28;20396;-71
2024/01/01 04:56:17;;;;;;;3.80;1.13;;;;;;;17.74;42.00;99870.94;5088679;28;20067;-70
2024/01/01 04:58:44;;;;;;;4.97;1.17;;;;;;;17.80;42.07;99887.13;5088576;28;20043;-68
2024/01/01 05:01:09;;;;;;;4.88;1.40;;;;;;;17.82;42.12;99890.47;5090056;28;20497;-69
2024/01/01 05:03:34;;;;;;;4.07;1.20;;;;;;;17.80;42.34;99884.50;5089805;28;20063;-68
2024/01/01 05:06:00;;;;;;;7.05;1.55;;;;;;;17.73;42.14;99879.81;5089839;28;20086;-68
2024/01/01 05:08:25;;;;;;;4.13;1.27;;;;;;;17.71;42.32;99873.88;5089941;28;20028;-70
2024/01/01 05:10:50;;;;;;;4.03;1.23;;;;;;;17.74;41.83;99888.56;5089944;28;20046;-69
2024/01/01 05:13:16;;;;;;;4.82;1.55;;;;;;;17.68;41.91;99871.53;5089659;28;20028;-69
2024/01/01 05:15:42;;;;;;;4.72;1.88;;;;;;;17.69;42.19;99881.09;5089286;28;20074;-68
2024/01/01 05:18:08;;;;;;;4.20;1.23;;;;;;;17.80;42.24;99895.03;5089372;28;21037;-70
2024/01/01 05:20:34;;;;;;;5.78;1.52;;;;;;;17.75;42.02;99904.22;5088952;28;20592;-68
2024/01/01 05:22:59;;;;;;;4.63;1.20;;;;;;;17.77;42.20;99904.91;5087850;28;20051;-69
2024/01/01 05:25:24;;;;;;;3.53;1.17;;;;;;;17.75;42.07;99906.03;5086205;28;20043;-69
2024/01/01 05:27:49;;;;;;;4.65;1.27;;;;;;;17.68;41.78;99904.94;5086868;28;20468;-69
2024/01/01 05:30:15;;;;;;;3.58;1.20;;;;;;;17.68;41.91;99910.22;5085077;28;20036;-70
2024/01/01 05:32:40;;;;;;;4.35;1.40;;;;;;;17.75;41.78;99917.41;5087015;28;20067;-69
2024/01/01 05:35:06;;;;;;;6.47;1.20;;;;;;;17.67;42.07;99900.66;5087414;28;20173;-69
2024/01/01 05:37:31;;;;;;;4.65;1.35;;;;;;;17.63;42.00;99901.94;5086861;28;20065;-70
2024/01/01 05:39:56;;;;;;;4.47;1.10;;;;;;;17.73;42.00;99921.16;5085279;28;20036;-71
2024/01/01 05:42:22;;;;;;;3.83;1.27;;;;;;;17.63;41.92;99907.19;5086077;28;20365;-71
2024/01/01 05:44:47;;;;;;;4.63;1.25;;;;;;;17.65;41.49;99916.59;5086906;28;20257;-70
2024/01/01 05:47:12;;;;;;;4.88;1.10;;;;;;;17.71;41.90;99920.47;5085469;28;20107;-71
2024/01/01 05:49:38;;;;;;;3.70;1.08;;;;;;;17.74;42.01;99939.47;5086547;28;20044;-70
2024/01/01 05:52:03;;;;;;;4.50;1.40;;;;;;;17.63;41.73;99921.19;5087235;28;20369;-69
2024/01/01 05:54:28;;;;;;;4.63;1.05;;;;;;;17.70;41.88;99942.53;5086768;28;20036;-69
2024/01/01 05:56:54;;;;;;;3.58;1.10;;;;;;;17.63;41.59;99937.00;5085435;28;20491;-71
2024/01/01 05:59:19;;;;;;;4.63;1.50;;;;;;;17.65;41.94;99948.22;5086276;28;20035;-70
2024/01/01 06:01:45;;;;;;;4.25;1.10;;;;;;;17.72;42.16;99949.31;5086201;28;20161;-68
2024/01/01 06:04:10;;;;;;;4.88;1.13;;;;;;;17.64;42.23;99932.56;5085675;28;20464;-69
2024/01/01 06:06:35;;;;;;;3.38;1.20;;;;;;;17.64;42.38;99940.44;5086589;28;20028;-70
2024/01/01 06:09:01;;;;;;;3.65;1.00;;;;;;;17.64;42.36;99943.09;5087054;28;20099;-71
2024/01/01 06:11:26;;;;;;;4.35;1.08;;;;;;;17.65;42.53;99940.31;5086624;28;20483;-68
2024/01/01 06:13:52;;;;;;;3.95;1.00;;;;;;;17.75;42.56;99964.84;5084816;28;20123;-70
2024/01/01 06:16:17;;;;;;;4.95;1.20;;;;;;;17.80;42.42;99963.56;5085861;28;20036;-69
2024/01/01 06:18:44;;;;;;;4.60;1.42;;;;;;;17.82;42.64;99964.28;5084483;28;20043;-70
2024/01/01 06:21:09;;;;;;;4.25;1.15;;;;;;;17.87;42.76;99959.41;5085637;28;20456;-69
2024/01/01 06:23:35;;;;;;;4.22;1.30;;;;;;;17.79;42.42;99957.47;5085484;28;20027;-69
2024/01/01 06:26:00;;;;;;;3.63;1.10;;;;;;;17.92;42.41;99975.63;5086076;28;20056;-70
2024/01/01 06:28:26;;;;;;;2.53;0.80;;;;;;;17.94;42.27;99981.59;5067695;28;20032;-70
2024/01/01 06:30:52;;;;;;;4.13;1.05;;;;;;;17.97;42.33;99981.31;5086165;28;20110;-69
2024/01/01 06:33:17;;;;;;;3.70;1.00;;;;;;;18.04;42.21;99992.09;5085361;28;20126;-71
2024/01/01 06:35:42;;;;;;;3.60;1.00;;;;;;;18.08;42.26;99999.56;5090479;28;20482;-70
2024/01/01 06:38:08;;;;;;;3.78;1.02;;;;;;;18.03;42.40;99993.91;5088215;28;20176;-70
2024/01/01 06:40:33;;;;;;;3.65;0.95;;;;;;;18.06;42.22;99992.81;5089444;28;20036;-70
2024/01/01 06:42:58;;;;;;;5.45;1.55;;;;;;;18.15;42.39;100005.13;5090103;28;20036;-69
2024/01/01 06:45:24;;;;;;;3.55;0.98;;;;;;;18.04;42.13;99992.94;5088921;28;20109;-69
2024/01/01 06:47:49;;;;;;;3.65;1.13;;;;;;;18.11;42.14;99999.28;5089346;28;20035;-69
2024/01/01 06:50:15;;;;;;;3.47;0.90;;;;;;;18.23;41.96;100020.19;5089657;28;20075;-69
2024/01/01 06:52:40;;;;;;;3.85;1.10;;;;;;;18.24;42.01;100024.50;5088269;28;20042;-69
2024/01/01 06:55:06;;;;;;;3.13;0.98;;;;;;;18.25;42.08;100029.63;5089343;28;20036;-69
2024/01/01 06:57:32;;;;;;;3.90;0.90;;;;;;;18.28;42.01;100033.81;5089741;28;20028;-70
2024/01/01 06:59:57;;;;;;;4.03;0.90;;;;;;;18.27;42.01;100032.94;5089554;28;20028;-69
2024/01/01 07:02:23;;;;;;;3.90;0.90;;;;;;;18.19;41.90;100026.75;5088163;28;20377;-71
2024/01/01 07:04:48;;;;;;;3.95;1.10;;;;;;;18.29;42.15;100057.41;5089356;28;20394;-70
2024/01/01 07:07:17;;;;;;;3.58;1.17;;;;;;;18.03;41.97;100004.44;5088285;28;20171;-69
2024/01/01 07:09:42;;;;;;;1.90;0.70;;;;;;;18.21;41.87;100043.25;5089328;28;20058;-69
2024/01/01 07:12:19;;;;;;;3.97;1.02;;;;;;;18.27;42.12;100050.59;5089469;28;20064;-68
2024/01/01 07:14:45;;;;;;;3.63;0.90;;;;;;;18.19;41.78;100043.41;5088081;28;20028;-71
2024/01/01 07:17:10;;;;;;;3.17;0.88;;;;;;;18.19;42.22;100048.66;5088834;28;20369;-69
2024/01/01 07:19:35;;;;;;;3.87;1.27;;;;;;;18.19;41.91;100050.50;5088196;28;20032;-70
2024/01/01 07:22:01;;;;;;;3.55;1.05;;;;;;;18.26;41.80;100075.28;5089360;28;20859;-70
2024/01/01 07:24:26;;;;;;;3.75;0.90;;;;;;;18.20;41.93;100065.31;5089761;28;20384;-69
2024/01/01 07:26:51;;;;;;;3.10;0.90;;;;;;;18.15;42.04;100063.13;5089735;28;20028;-69
2024/01/01 07:29:17;;;;;;;2.45;1.00;;;;;;;18.23;41.87;100086.97;5089226;28;20032;-71
2024/01/01 07:31:42;;;;;;;3.70;1.10;;;;;;;18.15;42.12;100070.19;5088929;28;20040;-70
2024/01/01 07:34:09;;;;;;;4.22;0.90;;;;;;;18.21;42.07;100080.19;5088911;28;20035;-71
2024/01/01 07:36:34;;;;;;;3.30;0.90;;;;;;;18.12;41.92;100071.34;5088914;28;20034;-71
2024/01/01 07:39:00;;;;;;;3.20;0.93;;;;;;;18.20;42.07;100089.03;5088646;28;20028;-70
2024/01/01 07:41:25;;;;;;;4.20;0.95;;;;;;;18.12;42.21;100076.59;5088693;28;20024;-70
2024/01/01 07:43:50;;;;;;;2.97;0.80;;;;;;;18.20;42.09;100094.31;5088731;28;20032;-70
2024/01/01 07:46:15;;;;;;;3.57;0.97;;;;;;;18.20;42.17;100089.03;5089677;28;20024;-69
2024/01/01 07:48:41;;;;;;;3.80;1.00;;;;;;;18.18;42.13;100096.28;5089276;28;20273;-70
2024/01/01 07:51:07;;;;;;;3.27;0.97;;;;;;;18.17;42.02;100092.81;5089577;28;20445;-70
2024/01/01 07:53:33;;;;;;;3.35;0.82;;;;;;;18.10;42.22;100073.25;5089200;28;20637;-71
2024/01/01 07:56:00;;;;;;;3.63;0.90;;;;;;;18.02;42.32;100073.97;5089444;28;20036;-71
2024/01/01 07:58:25;;;;;;;3.88;0.80;;;;;;;18.17;42.20;100099.91;5089161;28;20028;-68
2024/01/01 08:00:51;;;;;;;4.13;0.90;;;;;;;18.17;42.03;100111.28;5088963;28;20057;-70
2024/01/01 08:03:19;;;;;;;3.70;1.00;;;;;;;18.06;42.05;100098.28;5087810;28;20972;-69
2024/01/01 08:05:44;;;;;;;3.35;1.02;;;;;;;18.15;42.00;100121.16;5088612;28;20039;-70
2024/01/01 08:08:10;;;;;;;3.47;0.85;;;;;;;18.08;42.31;100115.59;5089130;28;20035;-69
2024/01/01 08:10:35;;;;;;;2.83;0.93;;;;;;;18.07;42.17;100113.09;5088784;28;20072;-68
2024/01/01 08:13:00;;;;;;;3.15;1.08;;;;;;;18.06;41.98;100130.72;5089003;28;20032;-69
2024/01/01 08:15:26;;;;;;;3.20;0.77;;;;;;;18.09;42.31;100129.63;5088361;28;20380;-70
2024/01/01 08:17:51;;;;;;;2.78;0.80;;;;;;;18.11;42.22;100140.84;5087131;28;20028;-68
2024/01/01 08:20:16;;;;;;;3.97;1.20;;;;;;;18.15;41.89;100147.53;5087637;28;20042;-69
2024/01/01 08:22:41;;;;;;;3.28;0.95;;;;;;;18.16;42.09;100153.63;5087125;28;20028;-67
2024/01/01 08:25:07;;;;;;;3.92;0.90;;;;;;;18.06;42.22;100149.19;5087235;28;20036;-69
2024/01/01 08:27:33;;;;;;;4.05;1.10;;;;;;;18.09;42.17;100150.72;5087714;28;20039;-67
2024/01/01 08:29:58;;;;;;;4.20;1.10;;;;;;;18.14;42.26;100161.66;5087595;28;20487;-68
2024/01/01 08:32:23;;;;;;;5.00;1.17;;;;;;;18.06;42.48;100137.81;5087954;28;20031;-68
2024/01/01 08:34:48;;;;;;;3.50;1.00;;;;;;;18.15;42.59;100171.25;5085554;28;20028;-68
2024/01/01 08:37:14;;;;;;;4.60;0.80;;;;;;;18.05;42.64;100165.97;5087173;28;20367;-67
2024/01/01 08:39:39;;;;;;;5.00;1.20;;;;;;;18.13;42.66;100178.47;5086590;28;20346;-67
2024/01/01 08:42:05;;;;;;;4.25;1.20;;;;;;;18.06;42.98;100177.38;5087411;28;20028;-67
2024/01/01 08:44:30;;;;;;;4.97;1.25;;;;;;;18.10;42.77;100176.09;5087180;28;20059;-70
2024/01/01 08:46:56;;;;;;;4.27;1.00;;;;;;;18.19;43.22;100192.91;5087069;28;20059;-68
2024/01/01 08:49:21;;;;;;;3.88;1.10;;;;;;;18.16;43.11;100196.63;5086819;28;20285;-69
2024/01/01 08:51:46;;;;;;;4.30;1.38;;;;;;;18.19;43.34;100201.63;5086766;28;20483;-71
2024/01/01 08:54:14;;;;;;;5.28;0.98;;;;;;;18.11;43.61;100160.13;5087126;28;20380;-69
2024/01/01 08:56:41;;;;;;;3.63;1.17;;;;;;;18.24;43.68;100196.75;5086839;28;20468;-69
2024/01/01 08:59:09;;;;;;;4.22;1.30;;;;;;;18.28;44.25;100206.06;5084121;28;20063;-68
2024/01/01 09:01:35;;;;;;;7.78;1.42;;;;;;;18.25;44.44;100195.81;5085360;28;20028;-67
2024/01/01 09:04:04;;;;;;;4.78;1.33;;;;;;;18.28;44.95;100190.25;5071318;28;20089;-68
2024/01/01 09:06:30;;;;;;;6.07;1.30;;;;;;;18.38;44.95;100213.97;5073646;28;20028;-70
2024/01/01 09:08:55;;;;;;;5.75;1.27;;;;;;;18.41;45.11;100215.50;5072520;28;20361;-69
2024/01/01 09:11:21;;;;;;;5.65;1.25;;;;;;;18.33;45.11;100200.38;5072673;28;20499;-71
2024/01/01 09:13:46;;;;;;;4.55;1.30;;;;;;;18.39;45.02;100220.91;5072966;28;20574;-71
2024/01/01 09:16:12;;;;;;;6.35;1.45;;;;;;;18.44;44.92;100220.50;5072518;28;20089;-71
2024/01/01 09:18:37;;;;;;;4.10;1.20;;;;;;;18.38;44.89;100203.41;5071687;28;20544;-70
2024/01/01 09:21:04;;;;;;;8.85;1.73;;;;;;;18.45;44.99;100228.28;5071685;28;20032;-70
2024/01/01 09:23:30;;;;;;;6.70;1.58;;;;;;;18.54;44.87;100245.03;5072003;28;20043;-69
2024/01/01 09:25:58;;;;;;;4.55;1.20;;;;;;;18.39;44.57;100223.56;5072172;28;20047;-69
2024/01/01 09:28:23;;;;;;;5.80;1.60;;;;;;;18.43;44.60;100224.91;5072276;28;20114;-69
2024/01/01 09:30:49;;;;;;;5.35;1.58;;;;;;;18.56;44.76;100250.19;5072686;28;20028;-68
2024/01/01 09:33:14;;;;;;;4.47;1.60;;;;;;;18.59;44.55;100266.56;5072893;28;20402;-69
2024/01/01 09:35:42;;;;;;;5.68;1.60;;;;;;;18.59;44.64;100258.63;5072793;28;20060;-69
2024/01/01 09:38:07;;;;;;;6.70;1.73;;;;;;;18.53;44.42;100248.63;5072885;28;20032;-69
2024/01/01 09:40:33;;;;;;;5.30;1.13;;;;;;;18.56;44.78;100248.38;5072605;28;20040;-68
2024/01/01 09:42:58;;;;;;;4.95;1.35;;;;;;;18.54;44.74;100247.69;5075861;28;20055;-70
2024/01/01 09:45:27;;;;;;;5.05;1.20;;;;;;;18.66;44.94;100272.94;5082613;28;20035;-70
2024/01/01 09:47:52;;;;;;;6.85;1.38;;;;;;;18.60;45.09;100246.28;5085555;28;20035;-70
2024/01/01 09:50:18;;;;;;;3.53;1.00;;;;;;;18.69;44.96;100261.25;5085533;28;20048;-71
2024/01/01 09:52:43;;;;;;;3.57;1.13;;;;;;;18.72;44.97;100276.81;5085069;28;20032;-72
2024/01/01 09:55:08;;;;;;;4.20;1.10;;;;;;;18.69;44.80;100274.44;5086441;28;20336;-71
2024/01/01 09:57:34;;;;;;;4.55;1.23;;;;;;;18.74;44.62;100290.72;5086849;28;20059;-71
2024/01/01 10:00:05;;;;;;;4.30;1.23;;;;;;;18.72;45.01;100282.09;5086179;28;20044;-70
2024/01/01 10:02:30;;;;;;;3.53;1.38;;;;;;;18.72;44.51;100305.03;5085417;28;20035;-70
2024/01/01 10:05:11;;;;;;;5.32;0.93;;;;;;;18.58;44.54;100286.03;5086238;28;20036;-70
2024/01/01 10:07:37;;;;;;;5.18;1.20;;;;;;;18.59;44.72;100300.88;5065800;28;20878;-69
2024/01/01 10:10:03;;;;;;;4.93;1.20;;;;;;;18.57;44.76;100300.19;5069206;28;20032;-69
2024/01/01 10:12:28;;;;;;;4.07;1.00;;;;;;;18.49;44.81;100292.97;5069865;28;20036;-69
2024/01/01 10:14:58;;;;;;;6.18;1.20;;;;;;;18.57;44.80;100310.72;5070273;28;20032;-72
2024/01/01 10:17:23;;;;;;;5.25;1.40;;;;;;;18.48;44.61;100298.38;5069404;28;20408;-69
2024/01/01 10:19:55;;;;;;;5.22;1.20;;;;;;;18.52;44.44;100307.69;5071117;28;20040;-69
2024/01/01 10:22:23;;;;;;;3.83;0.90;;;;;;;18.49;44.70;100298.25;5070881;28;20774;-68
2024/01/01 10:24:52;;;;;;;4.38;1.30;;;;;;;18.54;44.51;100310.19;5071217;28;20057;-68
2024/01/01 10:27:18;;;;;;;5.07;1.33;;;;;;;18.51;44.84;100310.47;5084391;28;20530;-68
2024/01/01 10:29:47;;;;;;;3.40;1.20;;;;;;;18.46;44.41;100313.53;5086002;28;20040;-68
2024/01/01 10:32:15;;;;;;;4.30;1.15;;;;;;;18.51;44.28;100313.94;5086081;28;20028;-69
2024/01/01 10:34:41;;;;;;;3.95;1.08;;;;;;;18.38;44.15;100308.13;5084455;28;20040;-69
2024/01/01 10:37:08;;;;;;;4.28;1.00;;;;;;;18.48;44.71;100314.22;5085606;28;20461;-68
2024/01/01 10:39:35;;;;;;;4.47;1.40;;;;;;;18.45;44.49;100323.25;5080576;28;20071;-69
2024/01/01 10:42:02;;;;;;;3.20;1.00;;;;;;;18.45;44.46;100327.69;5084457;28;20126;-69
2024/01/01 10:44:28;;;;;;;4.05;1.10;;;;;;;18.43;44.46;100329.63;5085366;28;20063;-69
2024/01/01 10:46:56;;;;;;;4.07;1.10;;;;;;;18.31;44.39;100326.31;5084794;28;20016;-69
2024/01/01 10:49:29;;;;;;;2.78;0.98;;;;;;;18.37;44.29;100343.38;5065763;28;20054;-69
2024/01/01 10:52:19;;;;;;;6.28;1.50;;;;;;;18.36;44.38;100347.81;5085885;28;20024;-69
2024/01/01 10:55:00;;;;;;;3.72;1.20;;;;;;;18.26;44.49;100320.59;5085012;28;20400;-69
2024/01/01 10:57:41;;;;;;;4.15;1.23;;;;;;;18.29;44.51;100336.13;5086393;28;20032;-69
2024/01/01 11:00:22;;;;;;;5.07;1.15;;;;;;;18.33;44.63;100339.38;5085635;28;20048;-70
2024/01/01 11:02:48;;;;;;;5.20;1.15;;;;;;;18.28;44.46;100351.16;5084123;28;20035;-69
2024/01/01 11:05:16;;;;;;;4.68;1.05;;;;;;;18.24;44.50;100347.09;5073769;28;20040;-70
2024/01/01 11:08:02;;;;;;;5.75;1.20;;;;;;;18.29;44.59;100344.06;5084742;28;20067;-70
2024/01/01 11:10:40;;;;;;;4.72;1.63;;;;;;;18.29;44.45;100344.06;5084641;28;20039;-69
2024/01/01 11:13:32;;;;;;;4.35;1.20;;;;;;;18.19;44.52;100328.22;5084839;28;20043;-70
2024/01/01 11:16:04;;;;;;;5.40;1.40;;;;;;;18.23;44.28;100348.09;5083400;28;20032;-70
2024/01/01 11:18:38;;;;;;;3.53;1.17;;;;;;;18.24;44.31;100341.81;5085794;28;20124;-69
2024/01/01 11:21:06;;;;;;;4.68;1.20;;;;;;;18.24;44.68;100343.63;5089675;28;20472;-69
2024/01/01 11:23:44;;;;;;;5.20;1.30;;;;;;;18.22;44.37;100340.31;5089345;28;20047;-68